Aeroporto :
LOGIN :

Iscrizione | Disclaimer

   EN    FR    IT 

 










Sommario :    VFR   VFR Marginale   IFR   IFR Intensivo   IFR Molto Intensivo
Visibilità : 
Base nubi : 
>= 8 km
>= 3000ft
5 / 8 km
1000 / 3000 ft
1500m / 5 km
500 / 1000 ft
800 / 1500m
200 / 500 ft
< 800m
< 200 ft
Simboli :   Temporali  Nebbia  Neve Forte  Precipitazioni Forti  Vento > 20 kt
SIGMETs :   Varie  Temporali  Ghiacco  Turbolenza  Onda orograficha  Ceneri Vulcaniche







- Altitudine del aeroporto : 28 ft
- Codice IATA : SOZ
- Carte del aeroporto


LFKS - Solenzara

ULTIMO METAR :
  • 260230Z AUTO 27003KT 240V300 CAVOK 17/12 Q1012

METARs OBSOLETI :
  • 260200Z AUTO VRB03KT 9999 FEW096 OVC140 17/11 Q1012
  • 260130Z AUTO 26003KT 230V290 9999 FEW098 OVC140 17/11 Q1012
  • 260100Z AUTO 22004KT 190V260 9999 OVC098 17/10 Q1013
  • 260030Z AUTO 22003KT 190V260 9999 FEW100 OVC130 16/11 Q1013
  • 260000Z AUTO 21004KT CAVOK 16/13 Q1013

TAF TAF LFKS
Valido dal 26 a 03 ore il 27 a 03 ore UTC


260200Z 2603/2703 26005KT 9999 SCT090 BKN170
TEMPO 2603/2618 4900 RA BKN025
Nessun NOTAM noto per questo aeroporto.
1 SIGMET conosciuto per la FIR Marseille (LFMM) :
 
Turbolenza severa
LFMM SIGMET 4 VALID 252300/260300 LFPW
LFMM MARSEILLE FIR/UIR SEV TURB FCST WI N4630 E00515 - N4630 E00645 - N4430 E00615 - N4430 E00515 - N4630 E00515 FL190/280 STNR NC=



MetMap, La meteo Aeronautica in un colpo d'occhio ! - Copyright ORBIFLY Dicembre 2007 - Disclaimer

ORBIFLY MET'MAP TEAM :

Programmazione e sviluppo : Alexandra Zaïnal
Concezione e sviluppo : Baudouin d'Aumeries
Co-Programmazione e sviluppo : Marc-Olivier Méhu
Supporto tecnico e logistico : Manuel Goepfert
Aiuto per la traduzione : Arnaldo La Scala

Contatto : metmap@orbifly.com




FONTI E CREDITI :

   NOAA